Zanderij の空港の天気 - METARとTAF

ヨハン・ペンヘル国際空港 ( SMJP / PBM ) - スリナム Zanderij
飛行場実況気象(Metar)
観測時間11/30 07:00 SRT (11/30 10:00 UTC)
風向・風速不定 1m/s
視程10km以上
天気現象
少しの雲 雲底高度 550m
全天の4割程度の雲 雲底高度 760m
気温23℃
湿度100%
気圧1011hPa
METARSMJP 301000Z VRB01KT 9999 FEW018CB SCT025 23/23 Q1011 NOSIG
過去の天気等 Google飛行場航空写真 Wunderground天気予報

過去48時間のMETAR

飛行場予報(TAF)
発表時間: 11/30 01:00 SRT (11/30 04:00 UTC)
予報対象時間: 30日3時 SRT ~ 1日3時 SRT
風向・風速不定 1m/s
視程10km以上
少しの雲 雲底高度 300m
30日5時 SRT ~ 30日7時 SRT に徐々に
風向・風速静穏
視程800m
天気現象
全天の8割程度の雲 雲底高度 30m
30日9時 SRT から
風向・風速東 4m/s
視程10km以上
全天の4割程度の雲 雲底高度 460m
30日14時 SRT ~ 30日18時 SRT に一時的に
風向・風速不定 6m/s 瞬間風速 11m/s
視程4000m
天気現象しゅう雨 雷雨
少しの積乱雲 雲底高度 460m
全天の8割程度の雲 雲底高度 550m
30日20時 SRT ~ 30日22時 SRT に徐々に
風向・風速東北東 2m/s
視程10km以上
なし
TAF SMJP 300400Z 3006/0106 VRB02KT 9999 FEW010 TX31/3017Z TN23/3009Z
BECMG 3008/3010 00000KT 0800 FG BKN001
FM301200 08008KT 9999 SCT015
TEMPO 3017/3021 VRB12G22KT 4000 SHRA TSRA FEW015CB BKN018
BECMG 3023/0101 06004KT CAVOK